sensor_id;sensor_type;location;lat;lon;timestamp;pressure;altitude;pressure_sealevel;temperature;humidity
49178;BME280;35016;55.674;37.468;2023-11-21T00:01:36;98489.13;;;-7.41;63.94
49178;BME280;35016;55.674;37.468;2023-11-21T00:04:04;98489.31;;;-7.42;63.80
49178;BME280;35016;55.674;37.468;2023-11-21T00:06:32;98486.19;;;-7.46;63.16
49178;BME280;35016;55.674;37.468;2023-11-21T00:09:00;98484.53;;;-7.47;64.04
49178;BME280;35016;55.674;37.468;2023-11-21T00:11:28;98499.19;;;-7.44;63.67
49178;BME280;35016;55.674;37.468;2023-11-21T00:13:56;98497.53;;;-7.45;63.58
49178;BME280;35016;55.674;37.468;2023-11-21T00:16:23;98489.81;;;-7.47;63.40
49178;BME280;35016;55.674;37.468;2023-11-21T00:18:52;98493.44;;;-7.48;64.06
49178;BME280;35016;55.674;37.468;2023-11-21T00:21:19;98505.59;;;-7.47;63.47
49178;BME280;35016;55.674;37.468;2023-11-21T00:23:48;98494.44;;;-7.49;63.96
49178;BME280;35016;55.674;37.468;2023-11-21T00:26:16;98489.16;;;-7.49;63.48
49178;BME280;35016;55.674;37.468;2023-11-21T00:28:49;98496.06;;;-7.48;63.35
49178;BME280;35016;55.674;37.468;2023-11-21T00:31:17;98475.00;;;-7.56;63.64
49178;BME280;35016;55.674;37.468;2023-11-21T00:33:45;98485.72;;;-7.50;63.45
49178;BME280;35016;55.674;37.468;2023-11-21T00:36:13;98486.34;;;-7.47;63.60
49178;BME280;35016;55.674;37.468;2023-11-21T00:38:40;98474.66;;;-7.45;63.26
49178;BME280;35016;55.674;37.468;2023-11-21T00:41:07;98485.84;;;-7.43;63.59
49178;BME280;35016;55.674;37.468;2023-11-21T00:43:35;98490.28;;;-7.43;63.38
49178;BME280;35016;55.674;37.468;2023-11-21T00:46:06;98492.28;;;-7.45;63.17
49178;BME280;35016;55.674;37.468;2023-11-21T00:48:36;98489.34;;;-7.51;63.80
49178;BME280;35016;55.674;37.468;2023-11-21T00:51:03;98484.22;;;-7.52;63.64
49178;BME280;35016;55.674;37.468;2023-11-21T00:53:33;98475.84;;;-7.56;63.48
49178;BME280;35016;55.674;37.468;2023-11-21T00:56:01;98471.22;;;-7.54;63.34
49178;BME280;35016;55.674;37.468;2023-11-21T00:58:29;98487.53;;;-7.50;63.36
49178;BME280;35016;55.674;37.468;2023-11-21T01:00:57;98484.22;;;-7.52;63.38
49178;BME280;35016;55.674;37.468;2023-11-21T01:03:26;98477.81;;;-7.58;63.84
49178;BME280;35016;55.674;37.468;2023-11-21T01:05:54;98485.88;;;-7.59;63.36
49178;BME280;35016;55.674;37.468;2023-11-21T01:08:21;98481.59;;;-7.60;63.61
49178;BME280;35016;55.674;37.468;2023-11-21T01:10:50;98479.81;;;-7.60;63.29
49178;BME280;35016;55.674;37.468;2023-11-21T01:13:17;98482.44;;;-7.60;63.27
49178;BME280;35016;55.674;37.468;2023-11-21T01:15:46;98484.88;;;-7.58;63.62
49178;BME280;35016;55.674;37.468;2023-11-21T01:18:14;98487.19;;;-7.55;63.71
49178;BME280;35016;55.674;37.468;2023-11-21T01:20:41;98476.31;;;-7.52;63.78
49178;BME280;35016;55.674;37.468;2023-11-21T01:23:08;98494.75;;;-7.52;63.62
49178;BME280;35016;55.674;37.468;2023-11-21T01:25:37;98488.81;;;-7.54;63.68
49178;BME280;35016;55.674;37.468;2023-11-21T01:28:04;98485.19;;;-7.53;63.59
49178;BME280;35016;55.674;37.468;2023-11-21T01:30:32;98474.19;;;-7.57;63.98
49178;BME280;35016;55.674;37.468;2023-11-21T01:33:00;98496.72;;;-7.54;63.72
49178;BME280;35016;55.674;37.468;2023-11-21T01:35:27;98490.31;;;-7.52;63.96
49178;BME280;35016;55.674;37.468;2023-11-21T01:37:55;98491.63;;;-7.56;63.69
49178;BME280;35016;55.674;37.468;2023-11-21T01:40:22;98493.09;;;-7.53;63.20
49178;BME280;35016;55.674;37.468;2023-11-21T01:42:52;98510.88;;;-7.55;63.54
49178;BME280;35016;55.674;37.468;2023-11-21T01:45:20;98509.56;;;-7.59;63.44
49178;BME280;35016;55.674;37.468;2023-11-21T01:47:48;98494.28;;;-7.64;63.07
49178;BME280;35016;55.674;37.468;2023-11-21T01:50:16;98498.41;;;-7.69;63.11
49178;BME280;35016;55.674;37.468;2023-11-21T01:52:46;98485.13;;;-7.76;63.33
49178;BME280;35016;55.674;37.468;2023-11-21T01:55:15;98492.03;;;-7.75;63.13
49178;BME280;35016;55.674;37.468;2023-11-21T01:57:55;98490.22;;;-7.74;63.30
49178;BME280;35016;55.674;37.468;2023-11-21T02:00:24;98482.50;;;-7.76;63.30
49178;BME280;35016;55.674;37.468;2023-11-21T02:02:51;98486.44;;;-7.80;63.18
49178;BME280;35016;55.674;37.468;2023-11-21T02:05:20;98494.66;;;-7.83;62.99
49178;BME280;35016;55.674;37.468;2023-11-21T02:07:50;98498.78;;;-7.89;63.72
49178;BME280;35016;55.674;37.468;2023-11-21T02:10:20;98500.75;;;-7.91;63.52
49178;BME280;35016;55.674;37.468;2023-11-21T02:12:52;98499.44;;;-7.95;63.99
49178;BME280;35016;55.674;37.468;2023-11-21T02:15:21;98504.88;;;-7.96;63.24
49178;BME280;35016;55.674;37.468;2023-11-21T02:17:50;98508.31;;;-7.96;63.05
49178;BME280;35016;55.674;37.468;2023-11-21T02:20:22;98502.25;;;-7.96;63.20
49178;BME280;35016;55.674;37.468;2023-11-21T02:22:55;98493.53;;;-7.97;63.80
49178;BME280;35016;55.674;37.468;2023-11-21T02:25:30;98494.53;;;-7.98;63.14
49178;BME280;35016;55.674;37.468;2023-11-21T02:28:01;98493.88;;;-8.00;63.46
49178;BME280;35016;55.674;37.468;2023-11-21T02:30:30;98505.22;;;-7.99;63.67
49178;BME280;35016;55.674;37.468;2023-11-21T02:33:01;98494.84;;;-8.01;63.11
49178;BME280;35016;55.674;37.468;2023-11-21T02:35:30;98490.59;;;-8.02;63.42
49178;BME280;35016;55.674;37.468;2023-11-21T02:37:59;98495.50;;;-7.99;63.20
49178;BME280;35016;55.674;37.468;2023-11-21T02:40:27;98510.63;;;-8.01;63.74
49178;BME280;35016;55.674;37.468;2023-11-21T02:42:54;98507.53;;;-8.04;63.05
49178;BME280;35016;55.674;37.468;2023-11-21T02:45:22;98499.97;;;-8.07;63.12
49178;BME280;35016;55.674;37.468;2023-11-21T02:47:51;98508.03;;;-8.09;62.95
49178;BME280;35016;55.674;37.468;2023-11-21T02:50:20;98512.44;;;-8.09;63.54
49178;BME280;35016;55.674;37.468;2023-11-21T02:52:51;98516.88;;;-8.10;63.08
49178;BME280;35016;55.674;37.468;2023-11-21T02:55:20;98506.53;;;-8.12;62.89
49178;BME280;35016;55.674;37.468;2023-11-21T02:57:48;98502.41;;;-8.14;62.76
49178;BME280;35016;55.674;37.468;2023-11-21T03:00:15;98510.97;;;-8.12;63.10
49178;BME280;35016;55.674;37.468;2023-11-21T03:02:44;98517.84;;;-8.11;63.24
49178;BME280;35016;55.674;37.468;2023-11-21T03:05:14;98515.75;;;-8.07;63.08
49178;BME280;35016;55.674;37.468;2023-11-21T03:07:42;98516.41;;;-8.05;62.53
49178;BME280;35016;55.674;37.468;2023-11-21T03:10:10;98522.31;;;-8.03;62.58
49178;BME280;35016;55.674;37.468;2023-11-21T03:12:39;98518.88;;;-8.04;63.11
49178;BME280;35016;55.674;37.468;2023-11-21T03:15:07;98522.00;;;-8.08;62.38
49178;BME280;35016;55.674;37.468;2023-11-21T03:17:36;98541.38;;;-8.09;62.38
49178;BME280;35016;55.674;37.468;2023-11-21T03:20:04;98523.94;;;-8.11;62.47
49178;BME280;35016;55.674;37.468;2023-11-21T03:22:32;98520.50;;;-8.11;63.38
49178;BME280;35016;55.674;37.468;2023-11-21T03:25:00;98524.75;;;-8.10;62.54
49178;BME280;35016;55.674;37.468;2023-11-21T03:27:30;98539.41;;;-8.07;62.31
49178;BME280;35016;55.674;37.468;2023-11-21T03:29:57;98528.38;;;-8.11;62.38
49178;BME280;35016;55.674;37.468;2023-11-21T03:32:26;98519.84;;;-8.13;62.76
49178;BME280;35016;55.674;37.468;2023-11-21T03:34:57;98528.72;;;-8.14;63.14
49178;BME280;35016;55.674;37.468;2023-11-21T03:37:26;98527.41;;;-8.18;62.37
49178;BME280;35016;55.674;37.468;2023-11-21T03:39:57;98553.03;;;-8.12;63.20
49178;BME280;35016;55.674;37.468;2023-11-21T03:42:27;98538.91;;;-8.11;63.23
49178;BME280;35016;55.674;37.468;2023-11-21T03:44:57;98540.06;;;-8.14;62.74
49178;BME280;35016;55.674;37.468;2023-11-21T03:47:26;98540.38;;;-8.17;62.40
49178;BME280;35016;55.674;37.468;2023-11-21T03:49:53;98541.38;;;-8.18;63.29
49178;BME280;35016;55.674;37.468;2023-11-21T03:52:21;98546.28;;;-8.15;62.85
49178;BME280;35016;55.674;37.468;2023-11-21T03:54:48;98555.66;;;-8.12;63.24
49178;BME280;35016;55.674;37.468;2023-11-21T03:57:15;98534.13;;;-8.16;62.61
49178;BME280;35016;55.674;37.468;2023-11-21T03:59:43;98537.59;;;-8.15;62.44
49178;BME280;35016;55.674;37.468;2023-11-21T04:02:11;98546.13;;;-8.13;63.36
49178;BME280;35016;55.674;37.468;2023-11-21T04:04:40;98542.34;;;-8.11;63.49
49178;BME280;35016;55.674;37.468;2023-11-21T04:07:08;98537.78;;;-8.08;63.09
49178;BME280;35016;55.674;37.468;2023-11-21T04:09:35;98547.97;;;-8.05;62.71
49178;BME280;35016;55.674;37.468;2023-11-21T04:12:04;98542.22;;;-8.09;63.51
49178;BME280;35016;55.674;37.468;2023-11-21T04:14:31;98525.59;;;-8.09;62.83
49178;BME280;35016;55.674;37.468;2023-11-21T04:17:00;98527.38;;;-8.10;62.99
49178;BME280;35016;55.674;37.468;2023-11-21T04:19:30;98533.63;;;-8.11;63.13
49178;BME280;35016;55.674;37.468;2023-11-21T04:21:58;98534.47;;;-8.11;62.81
49178;BME280;35016;55.674;37.468;2023-11-21T04:24:29;98526.44;;;-8.09;62.73
49178;BME280;35016;55.674;37.468;2023-11-21T04:26:56;98538.44;;;-8.06;63.01
49178;BME280;35016;55.674;37.468;2023-11-21T04:29:24;98535.47;;;-8.03;63.50
49178;BME280;35016;55.674;37.468;2023-11-21T04:31:51;98543.34;;;-8.03;63.31
49178;BME280;35016;55.674;37.468;2023-11-21T04:34:18;98543.53;;;-8.05;62.69
49178;BME280;35016;55.674;37.468;2023-11-21T04:36:46;98542.53;;;-8.04;62.62
49178;BME280;35016;55.674;37.468;2023-11-21T04:39:13;98545.81;;;-8.02;62.55
49178;BME280;35016;55.674;37.468;2023-11-21T04:41:40;98550.91;;;-8.00;63.12
49178;BME280;35016;55.674;37.468;2023-11-21T04:44:07;98557.97;;;-8.01;63.06
49178;BME280;35016;55.674;37.468;2023-11-21T04:46:36;98560.78;;;-8.02;62.96
49178;BME280;35016;55.674;37.468;2023-11-21T04:49:03;98572.28;;;-8.03;63.30
49178;BME280;35016;55.674;37.468;2023-11-21T04:51:31;98561.28;;;-8.07;63.14
49178;BME280;35016;55.674;37.468;2023-11-21T04:53:59;98566.22;;;-8.04;63.71
49178;BME280;35016;55.674;37.468;2023-11-21T04:56:28;98566.22;;;-8.04;63.41
49178;BME280;35016;55.674;37.468;2023-11-21T04:58:55;98573.09;;;-8.03;62.83
49178;BME280;35016;55.674;37.468;2023-11-21T05:01:22;98575.56;;;-8.01;63.75
49178;BME280;35016;55.674;37.468;2023-11-21T05:03:50;98576.06;;;-7.98;62.78
49178;BME280;35016;55.674;37.468;2023-11-21T05:06:17;98571.63;;;-7.97;62.80
49178;BME280;35016;55.674;37.468;2023-11-21T05:08:44;98584.78;;;-7.97;62.94
49178;BME280;35016;55.674;37.468;2023-11-21T05:11:11;98588.22;;;-7.97;63.12
49178;BME280;35016;55.674;37.468;2023-11-21T05:13:38;98587.25;;;-7.96;63.41
49178;BME280;35016;55.674;37.468;2023-11-21T05:16:06;98592.34;;;-7.94;63.33
49178;BME280;35016;55.674;37.468;2023-11-21T05:18:34;98582.31;;;-7.99;63.10
49178;BME280;35016;55.674;37.468;2023-11-21T05:21:01;98589.88;;;-8.04;63.17
49178;BME280;35016;55.674;37.468;2023-11-21T05:23:29;98588.69;;;-8.09;63.55
49178;BME280;35016;55.674;37.468;2023-11-21T05:25:56;98576.03;;;-8.14;63.50
49178;BME280;35016;55.674;37.468;2023-11-21T05:28:24;98591.00;;;-8.15;63.28
49178;BME280;35016;55.674;37.468;2023-11-21T05:30:51;98590.84;;;-8.13;63.15
49178;BME280;35016;55.674;37.468;2023-11-21T05:33:36;98573.41;;;-8.14;63.18
49178;BME280;35016;55.674;37.468;2023-11-21T05:36:04;98568.31;;;-8.16;63.54
49178;BME280;35016;55.674;37.468;2023-11-21T05:38:31;98579.81;;;-8.17;63.84
49178;BME280;35016;55.674;37.468;2023-11-21T05:40:58;98564.22;;;-8.18;63.61
49178;BME280;35016;55.674;37.468;2023-11-21T05:43:25;98589.53;;;-8.17;62.79
49178;BME280;35016;55.674;37.468;2023-11-21T05:45:54;98592.16;;;-8.17;63.23
49178;BME280;35016;55.674;37.468;2023-11-21T05:48:21;98594.78;;;-8.17;63.42
49178;BME280;35016;55.674;37.468;2023-11-21T05:50:50;98594.13;;;-8.19;63.15
49178;BME280;35016;55.674;37.468;2023-11-21T05:53:17;98590.50;;;-8.18;63.34
49178;BME280;35016;55.674;37.468;2023-11-21T05:55:44;98593.63;;;-8.15;63.49
49178;BME280;35016;55.674;37.468;2023-11-21T05:58:11;98593.00;;;-8.08;63.05
49178;BME280;35016;55.674;37.468;2023-11-21T06:00:40;98587.75;;;-8.08;63.28
49178;BME280;35016;55.674;37.468;2023-11-21T06:03:08;98600.22;;;-8.02;63.40
49178;BME280;35016;55.674;37.468;2023-11-21T06:05:36;98580.66;;;-8.00;63.87
49178;BME280;35016;55.674;37.468;2023-11-21T06:08:04;98585.75;;;-7.98;63.72
49178;BME280;35016;55.674;37.468;2023-11-21T06:10:33;98596.94;;;-7.88;63.77
49178;BME280;35016;55.674;37.468;2023-11-21T06:13:01;98597.91;;;-7.81;63.65
49178;BME280;35016;55.674;37.468;2023-11-21T06:15:30;98598.91;;;-7.74;63.14
49178;BME280;35016;55.674;37.468;2023-11-21T06:17:57;98616.34;;;-7.73;63.38
49178;BME280;35016;55.674;37.468;2023-11-21T06:20:25;98613.72;;;-7.73;63.02
49178;BME280;35016;55.674;37.468;2023-11-21T06:22:53;98611.59;;;-7.77;63.72
49178;BME280;35016;55.674;37.468;2023-11-21T06:25:21;98614.22;;;-7.77;63.74
49178;BME280;35016;55.674;37.468;2023-11-21T06:27:49;98591.69;;;-7.80;63.23
49178;BME280;35016;55.674;37.468;2023-11-21T06:30:17;98606.31;;;-7.77;63.38
49178;BME280;35016;55.674;37.468;2023-11-21T06:32:47;98594.97;;;-7.78;63.21
49178;BME280;35016;55.674;37.468;2023-11-21T06:35:15;98607.16;;;-7.77;63.13
49178;BME280;35016;55.674;37.468;2023-11-21T06:37:44;98613.22;;;-7.76;63.14
49178;BME280;35016;55.674;37.468;2023-11-21T06:40:17;98618.16;;;-7.73;63.49
49178;BME280;35016;55.674;37.468;2023-11-21T06:42:48;98613.72;;;-7.73;63.02
49178;BME280;35016;55.674;37.468;2023-11-21T06:45:17;98616.19;;;-7.71;63.54
49178;BME280;35016;55.674;37.468;2023-11-21T06:47:44;98612.56;;;-7.70;63.43
49178;BME280;35016;55.674;37.468;2023-11-21T06:50:13;98610.09;;;-7.64;63.16
49178;BME280;35016;55.674;37.468;2023-11-21T06:52:40;98614.19;;;-7.61;63.57
49178;BME280;35016;55.674;37.468;2023-11-21T06:55:08;98611.88;;;-7.56;63.01
49178;BME280;35016;55.674;37.468;2023-11-21T06:57:36;98602.66;;;-7.52;63.79
49178;BME280;35016;55.674;37.468;2023-11-21T07:00:06;98621.78;;;-7.50;63.19
49178;BME280;35016;55.674;37.468;2023-11-21T07:02:36;98610.91;;;-7.47;63.71
49178;BME280;35016;55.674;37.468;2023-11-21T07:05:04;98612.69;;;-7.39;63.22
49178;BME280;35016;55.674;37.468;2023-11-21T07:07:32;98612.34;;;-7.36;63.50
49178;BME280;35016;55.674;37.468;2023-11-21T07:10:03;98619.28;;;-7.35;62.80
49178;BME280;35016;55.674;37.468;2023-11-21T07:12:31;98611.53;;;-7.37;62.81
49178;BME280;35016;55.674;37.468;2023-11-21T07:14:59;98628.66;;;-7.41;63.05
49178;BME280;35016;55.674;37.468;2023-11-21T07:17:26;98618.31;;;-7.42;63.16
49178;BME280;35016;55.674;37.468;2023-11-21T07:19:53;98628.00;;;-7.43;62.97
49178;BME280;35016;55.674;37.468;2023-11-21T07:22:22;98630.66;;;-7.43;63.27
49178;BME280;35016;55.674;37.468;2023-11-21T07:24:49;98641.00;;;-7.41;62.91
49178;BME280;35016;55.674;37.468;2023-11-21T07:27:17;98617.78;;;-7.38;63.39
49178;BME280;35016;55.674;37.468;2023-11-21T07:29:45;98631.94;;;-7.31;62.98
49178;BME280;35016;55.674;37.468;2023-11-21T07:32:12;98630.13;;;-7.22;62.80
49178;BME280;35016;55.674;37.468;2023-11-21T07:34:41;98618.91;;;-7.16;63.29
49178;BME280;35016;55.674;37.468;2023-11-21T07:37:08;98621.03;;;-7.11;63.22
49178;BME280;35016;55.674;37.468;2023-11-21T07:39:36;98621.69;;;-7.09;63.10
49178;BME280;35016;55.674;37.468;2023-11-21T07:42:03;98624.31;;;-7.09;62.93
49178;BME280;35016;55.674;37.468;2023-11-21T07:44:31;98621.84;;;-7.11;62.55
49178;BME280;35016;55.674;37.468;2023-11-21T07:46:58;98633.03;;;-7.09;62.60
49178;BME280;35016;55.674;37.468;2023-11-21T07:49:26;98635.69;;;-7.09;62.56
49178;BME280;35016;55.674;37.468;2023-11-21T07:51:54;98624.66;;;-7.12;62.69
49178;BME280;35016;55.674;37.468;2023-11-21T07:54:21;98639.16;;;-7.16;62.82
49178;BME280;35016;55.674;37.468;2023-11-21T07:56:50;98622.22;;;-7.22;62.86
49178;BME280;35016;55.674;37.468;2023-11-21T07:59:17;98626.16;;;-7.26;62.91
49178;BME280;35016;55.674;37.468;2023-11-21T08:01:45;98626.00;;;-7.33;62.59
49178;BME280;35016;55.674;37.468;2023-11-21T08:04:13;98625.34;;;-7.35;62.68
49178;BME280;35016;55.674;37.468;2023-11-21T08:06:40;98627.00;;;-7.34;62.78
49178;BME280;35016;55.674;37.468;2023-11-21T08:09:09;98639.31;;;-7.26;62.98
49178;BME280;35016;55.674;37.468;2023-11-21T08:11:36;98633.06;;;-7.25;63.08
49178;BME280;35016;55.674;37.468;2023-11-21T08:14:06;98624.69;;;-7.29;62.76
49178;BME280;35016;55.674;37.468;2023-11-21T08:16:35;98626.97;;;-7.26;62.86
49178;BME280;35016;55.674;37.468;2023-11-21T08:19:02;98642.78;;;-7.26;62.71
49178;BME280;35016;55.674;37.468;2023-11-21T08:21:30;98615.97;;;-7.29;63.15
49178;BME280;35016;55.674;37.468;2023-11-21T08:23:58;98642.94;;;-7.27;62.80
49178;BME280;35016;55.674;37.468;2023-11-21T08:26:25;98618.78;;;-7.23;62.98
49178;BME280;35016;55.674;37.468;2023-11-21T08:28:52;98612.50;;;-7.22;62.80
49178;BME280;35016;55.674;37.468;2023-11-21T08:31:24;98608.53;;;-7.18;62.30
49178;BME280;35016;55.674;37.468;2023-11-21T08:33:52;98614.28;;;-7.14;62.61
49178;BME280;35016;55.674;37.468;2023-11-21T08:36:22;98603.41;;;-7.11;62.67
49178;BME280;35016;55.674;37.468;2023-11-21T08:38:51;98615.59;;;-7.10;62.56
49178;BME280;35016;55.674;37.468;2023-11-21T08:41:21;98615.13;;;-7.13;62.66
49178;BME280;35016;55.674;37.468;2023-11-21T08:43:52;98603.25;;;-7.09;62.88
49178;BME280;35016;55.674;37.468;2023-11-21T08:46:20;98595.00;;;-7.06;62.41
49178;BME280;35016;55.674;37.468;2023-11-21T08:48:48;98604.84;;;-7.00;63.03
49178;BME280;35016;55.674;37.468;2023-11-21T08:51:15;98611.44;;;-6.96;62.29
49178;BME280;35016;55.674;37.468;2023-11-21T08:53:43;98605.84;;;-6.93;62.68
49178;BME280;35016;55.674;37.468;2023-11-21T08:56:14;98604.50;;;-6.89;62.40
49178;BME280;35016;55.674;37.468;2023-11-21T08:58:41;98608.97;;;-6.90;62.05
49178;BME280;35016;55.674;37.468;2023-11-21T09:01:09;98608.13;;;-6.90;62.57
49178;BME280;35016;55.674;37.468;2023-11-21T09:03:36;98622.47;;;-6.93;61.86
49178;BME280;35016;55.674;37.468;2023-11-21T09:06:07;98627.56;;;-6.91;62.00
49178;BME280;35016;55.674;37.468;2023-11-21T09:08:37;98639.41;;;-6.95;62.16
49178;BME280;35016;55.674;37.468;2023-11-21T09:11:04;98623.00;;;-7.05;62.35
49178;BME280;35016;55.674;37.468;2023-11-21T09:13:36;98628.25;;;-7.05;62.39
49178;BME280;35016;55.674;37.468;2023-11-21T09:16:03;98631.06;;;-7.07;62.56
49178;BME280;35016;55.674;37.468;2023-11-21T09:18:31;98627.78;;;-7.09;62.40
49178;BME280;35016;55.674;37.468;2023-11-21T09:20:58;98650.00;;;-7.11;62.33
49178;BME280;35016;55.674;37.468;2023-11-21T09:23:26;98645.09;;;-7.14;62.67
49178;BME280;35016;55.674;37.468;2023-11-21T09:25:53;98642.09;;;-7.11;62.70
49178;BME280;35016;55.674;37.468;2023-11-21T09:28:24;98632.41;;;-7.11;62.75
49178;BME280;35016;55.674;37.468;2023-11-21T09:31:00;98644.53;;;-7.02;62.38
49178;BME280;35016;55.674;37.468;2023-11-21T09:33:33;98646.66;;;-6.97;62.49
49178;BME280;35016;55.674;37.468;2023-11-21T09:36:28;98633.84;;;-6.92;62.29
49178;BME280;35016;55.674;37.468;2023-11-21T09:38:57;98631.84;;;-6.90;62.54
49178;BME280;35016;55.674;37.468;2023-11-21T09:41:43;98646.31;;;-6.86;62.26
49178;BME280;35016;55.674;37.468;2023-11-21T09:44:13;98629.88;;;-6.88;62.69
49178;BME280;35016;55.674;37.468;2023-11-21T09:46:41;98645.66;;;-6.80;62.20
49178;BME280;35016;55.674;37.468;2023-11-21T09:49:11;98633.75;;;-6.76;62.32
49178;BME280;35016;55.674;37.468;2023-11-21T09:51:43;98645.94;;;-6.75;62.08
49178;BME280;35016;55.674;37.468;2023-11-21T09:54:11;98642.84;;;-6.78;62.29
49178;BME280;35016;55.674;37.468;2023-11-21T09:56:42;98634.44;;;-6.82;62.33
49178;BME280;35016;55.674;37.468;2023-11-21T09:59:13;98643.66;;;-6.78;62.48
49178;BME280;35016;55.674;37.468;2023-11-21T10:01:42;98650.22;;;-6.74;62.50
49178;BME280;35016;55.674;37.468;2023-11-21T10:04:10;98651.06;;;-6.73;62.19
49178;BME280;35016;55.674;37.468;2023-11-21T10:06:40;98658.44;;;-6.69;62.13
49178;BME280;35016;55.674;37.468;2023-11-21T10:09:10;98645.25;;;-6.69;62.37
49178;BME280;35016;55.674;37.468;2023-11-21T10:11:42;98648.06;;;-6.70;62.55
49178;BME280;35016;55.674;37.468;2023-11-21T10:14:12;98651.06;;;-6.73;62.30
49178;BME280;35016;55.674;37.468;2023-11-21T10:16:42;98661.94;;;-6.76;62.32
49178;BME280;35016;55.674;37.468;2023-11-21T10:19:13;98662.28;;;-6.79;62.16
49178;BME280;35016;55.674;37.468;2023-11-21T10:21:43;98674.81;;;-6.81;62.52
49178;BME280;35016;55.674;37.468;2023-11-21T10:24:10;98668.88;;;-6.83;62.57
49178;BME280;35016;55.674;37.468;2023-11-21T10:26:39;98660.16;;;-6.84;62.35
49178;BME280;35016;55.674;37.468;2023-11-21T10:29:19;98664.59;;;-6.84;62.36
49178;BME280;35016;55.674;37.468;2023-11-21T10:31:50;98657.84;;;-6.87;62.49
49178;BME280;35016;55.674;37.468;2023-11-21T10:34:19;98660.19;;;-6.92;62.21
49178;BME280;35016;55.674;37.468;2023-11-21T10:36:47;98649.81;;;-6.94;62.49
49178;BME280;35016;55.674;37.468;2023-11-21T10:39:20;98657.38;;;-6.91;62.34
49178;BME280;35016;55.674;37.468;2023-11-21T10:41:50;98657.22;;;-6.89;62.51
49178;BME280;35016;55.674;37.468;2023-11-21T10:44:18;98655.56;;;-6.90;62.80
49178;BME280;35016;55.674;37.468;2023-11-21T10:46:50;98656.38;;;-6.90;62.64
49178;BME280;35016;55.674;37.468;2023-11-21T10:49:18;98652.94;;;-6.90;62.83
49178;BME280;35016;55.674;37.468;2023-11-21T10:51:46;98646.84;;;-6.91;62.81
49178;BME280;35016;55.674;37.468;2023-11-21T10:54:24;98665.63;;;-6.94;62.17
49178;BME280;35016;55.674;37.468;2023-11-21T10:56:57;98674.19;;;-7.00;62.13
49178;BME280;35016;55.674;37.468;2023-11-21T10:59:29;98665.97;;;-7.05;62.43
49178;BME280;35016;55.674;37.468;2023-11-21T11:01:58;98669.59;;;-7.06;62.59
49178;BME280;35016;55.674;37.468;2023-11-21T11:04:28;98665.78;;;-7.03;62.70
49178;BME280;35016;55.674;37.468;2023-11-21T11:06:57;98671.06;;;-7.03;62.67
49178;BME280;35016;55.674;37.468;2023-11-21T11:09:31;98667.44;;;-7.02;62.58
49178;BME280;35016;55.674;37.468;2023-11-21T11:12:04;98666.28;;;-7.00;62.72
49178;BME280;35016;55.674;37.468;2023-11-21T11:14:35;98657.22;;;-6.97;62.34
49178;BME280;35016;55.674;37.468;2023-11-21T11:17:05;98656.22;;;-6.96;62.30
49178;BME280;35016;55.674;37.468;2023-11-21T11:19:33;98668.91;;;-6.92;62.05
49178;BME280;35016;55.674;37.468;2023-11-21T11:22:29;98669.22;;;-6.95;61.99
49178;BME280;35016;55.674;37.468;2023-11-21T11:33:27;98666.78;;;-7.04;62.22
49178;BME280;35016;55.674;37.468;2023-11-21T11:36:18;98680.28;;;-6.99;62.22
49178;BME280;35016;55.674;37.468;2023-11-21T11:38:49;98682.72;;;-6.98;62.46
49178;BME280;35016;55.674;37.468;2023-11-21T11:41:26;98691.47;;;-6.97;61.98
49178;BME280;35016;55.674;37.468;2023-11-21T11:43:54;98677.28;;;-6.96;62.07
49178;BME280;35016;55.674;37.468;2023-11-21T11:46:40;98680.59;;;-7.02;61.75
49178;BME280;35016;55.674;37.468;2023-11-21T11:49:09;98700.84;;;-7.03;62.04
49178;BME280;35016;55.674;37.468;2023-11-21T11:51:36;98695.94;;;-7.06;62.50
49178;BME280;35016;55.674;37.468;2023-11-21T11:54:03;98691.47;;;-7.05;62.66
49178;BME280;35016;55.674;37.468;2023-11-21T11:56:36;98680.94;;;-7.05;62.61
49178;BME280;35016;55.674;37.468;2023-11-21T11:59:05;98671.91;;;-7.11;62.40
49178;BME280;35016;55.674;37.468;2023-11-21T12:01:36;98712.56;;;-7.05;62.12
49178;BME280;35016;55.674;37.468;2023-11-21T12:04:22;98704.47;;;-7.04;62.10
49178;BME280;35016;55.674;37.468;2023-11-21T12:07:15;98702.19;;;-7.07;62.35
49178;BME280;35016;55.674;37.468;2023-11-21T12:09:45;98711.25;;;-7.09;62.13
49178;BME280;35016;55.674;37.468;2023-11-21T12:12:15;98700.22;;;-7.13;62.48
49178;BME280;35016;55.674;37.468;2023-11-21T12:14:44;98704.50;;;-7.12;62.41
49178;BME280;35016;55.674;37.468;2023-11-21T12:17:18;98714.72;;;-7.09;62.61
49178;BME280;35016;55.674;37.468;2023-11-21T12:19:45;98725.72;;;-7.05;62.43
49178;BME280;35016;55.674;37.468;2023-11-21T12:22:13;98711.91;;;-7.07;62.38
49178;BME280;35016;55.674;37.468;2023-11-21T12:24:44;98696.44;;;-7.10;62.61
49178;BME280;35016;55.674;37.468;2023-11-21T12:27:14;98700.72;;;-7.09;62.10
49178;BME280;35016;55.674;37.468;2023-11-21T12:29:41;98712.56;;;-7.13;62.28
49178;BME280;35016;55.674;37.468;2023-11-21T12:32:09;98717.34;;;-7.17;62.37
49178;BME280;35016;55.674;37.468;2023-11-21T12:34:40;98730.84;;;-7.20;62.56
49178;BME280;35016;55.674;37.468;2023-11-21T12:37:09;98732.00;;;-7.23;62.29
49178;BME280;35016;55.674;37.468;2023-11-21T12:39:39;98733.13;;;-7.25;62.62
49178;BME280;35016;55.674;37.468;2023-11-21T12:42:07;98729.69;;;-7.26;62.37
49178;BME280;35016;55.674;37.468;2023-11-21T12:44:35;98726.22;;;-7.26;62.24
49178;BME280;35016;55.674;37.468;2023-11-21T12:47:03;98729.53;;;-7.24;62.15
49178;BME280;35016;55.674;37.468;2023-11-21T12:49:30;98717.34;;;-7.25;62.12
49178;BME280;35016;55.674;37.468;2023-11-21T12:52:01;98724.91;;;-7.30;62.65
49178;BME280;35016;55.674;37.468;2023-11-21T12:54:32;98718.50;;;-7.36;62.21
49178;BME280;35016;55.674;37.468;2023-11-21T12:57:03;98713.72;;;-7.24;62.09
49178;BME280;35016;55.674;37.468;2023-11-21T12:59:33;98738.41;;;-7.25;62.22
49178;BME280;35016;55.674;37.468;2023-11-21T13:02:01;98700.25;;;-7.37;62.02
49178;BME280;35016;55.674;37.468;2023-11-21T13:04:32;98697.28;;;-7.42;62.47
49178;BME280;35016;55.674;37.468;2023-11-21T13:07:05;98725.25;;;-7.25;62.58
49178;BME280;35016;55.674;37.468;2023-11-21T13:09:42;98732.97;;;-7.32;62.30